Umbarger, TX

9:57 AM CST on December 20, 2014 (GMT -0600)
Hale County | Change Station
CLOSE
Current Station
Airport
Location: Plainview,
Elevation: 3373 ft
Nearby Weather Stations
Active Advisory: Dense Fog Advisory

Elev 3373 ft 34.17 °N, 101.72 °W | Updated 22 minutes ago

Fog
Fog
35 °F
Feels Like 29 °F
N
8
Wind Variable Wind from SW

Today
High -- | Low -- °F
--% Chance of Precip.
Yesterday
High -- | Low -- °F
Precip. -- in
7:50 AM 5:39 PM
Waning Crescent, 3% visible
Pressure 30.13 in
Visibility 3.0 miles
Clouds Overcast 200 ft
Windchill 29 °F
Dew Point 34 °F
Humidity 96%
Rainfall 0.00 in
Snow Depth Not available.
UV 0 out of 12
Pollen 6.90 out of 12
Air Quality Not available.
Flu Activity Not available.
METAR KPVW 201535Z AUTO 23007KT 3SM BR OVC002 02/01 A3013 RMK AO2 T00190013

More Conditions Fewer Conditions

Pressure 30.13 in
Visibility 3.0 miles
Clouds Overcast 200 ft
Windchill 29 °F
Dew Point 34 °F
Humidity 96%
Rainfall 0.00 in
Snow Depth Not available.
UV 0 out of 12
Pollen 6.90 out of 12
Air Quality Not available.
Flu Activity Not available.
METAR KPVW 201535Z AUTO 23007KT 3SM BR OVC002 02/01 A3013 RMK AO2 T00190013

More Conditions Fewer Conditions

10-Day Weather Forecast

Almanac

Astronomy

Dec. 20, 2014 Rise Set
Actual Time
Civil Twilight
Nautical Twilight
Astronomical Twilight
Moon
Length of Visible Light
Length of Day
Tomorrow will be .
, % of the Moon is Illuminated

Today's Extremes

State Highs State Lows

Community

WunderPhotos

Upload Photos

1,779,211 photos uploaded!

WunderBlogs® & News

Nearby

Air Quality

  Air Quality AQ Index Pollutant
Not available.

Snow Depth

Station Depth Elevation

Earthquake Activity

City Distance Mag. Time & Date
Minimum magnitude displayed is 2.5.

Coastal Water Temperatures

Place Temperature

Nearby Weather Stations